sensor_id;sensor_type;location;lat;lon;timestamp;pressure;altitude;pressure_sealevel;temperature;humidity
65359;BME280;52491;45.900;6.346;2023-01-30T00:01:27;94482.44;;;22.87;20.60
65359;BME280;52491;45.900;6.346;2023-01-30T00:03:53;94481.03;;;22.85;20.76
65359;BME280;52491;45.900;6.346;2023-01-30T00:06:19;94480.25;;;22.84;20.72
65359;BME280;52491;45.900;6.346;2023-01-30T00:08:45;94475.72;;;22.85;20.46
65359;BME280;52491;45.900;6.346;2023-01-30T00:11:12;94480.03;;;22.86;20.39
65359;BME280;52491;45.900;6.346;2023-01-30T00:13:38;94481.84;;;22.85;20.32
65359;BME280;52491;45.900;6.346;2023-01-30T00:16:05;94479.44;;;22.84;20.40
65359;BME280;52491;45.900;6.346;2023-01-30T00:18:30;94482.09;;;22.84;20.36
65359;BME280;52491;45.900;6.346;2023-01-30T00:20:58;94474.13;;;22.84;20.33
65359;BME280;52491;45.900;6.346;2023-01-30T00:23:25;94478.06;;;22.81;20.33
65359;BME280;52491;45.900;6.346;2023-01-30T00:25:51;94471.16;;;22.80;20.10
65359;BME280;52491;45.900;6.346;2023-01-30T00:28:17;94468.50;;;22.80;20.21
65359;BME280;52491;45.900;6.346;2023-01-30T00:30:42;94465.00;;;22.79;20.28
65359;BME280;52491;45.900;6.346;2023-01-30T00:33:08;94456.22;;;22.79;20.23
65359;BME280;52491;45.900;6.346;2023-01-30T00:35:34;94458.34;;;22.77;20.22
65359;BME280;52491;45.900;6.346;2023-01-30T00:38:00;94454.84;;;22.76;20.22
65359;BME280;52491;45.900;6.346;2023-01-30T00:40:27;94457.03;;;22.79;20.18
65359;BME280;52491;45.900;6.346;2023-01-30T00:42:54;94447.69;;;22.77;20.22
65359;BME280;52491;45.900;6.346;2023-01-30T00:45:40;94457.50;;;22.76;20.18
65359;BME280;52491;45.900;6.346;2023-01-30T00:48:27;94460.63;;;22.73;19.96
65359;BME280;52491;45.900;6.346;2023-01-30T00:50:52;94458.78;;;22.74;20.25
65359;BME280;52491;45.900;6.346;2023-01-30T00:53:18;94451.06;;;22.72;20.18
65359;BME280;52491;45.900;6.346;2023-01-30T00:55:44;94454.78;;;22.71;20.17
65359;BME280;52491;45.900;6.346;2023-01-30T00:58:10;94452.34;;;22.70;20.20
65359;BME280;52491;45.900;6.346;2023-01-30T01:00:37;94445.41;;;22.69;20.25
65359;BME280;52491;45.900;6.346;2023-01-30T01:03:03;94448.09;;;22.69;20.14
65359;BME280;52491;45.900;6.346;2023-01-30T01:05:28;94448.41;;;22.72;20.00
65359;BME280;52491;45.900;6.346;2023-01-30T01:07:54;94445.97;;;22.71;19.97
65359;BME280;52491;45.900;6.346;2023-01-30T01:10:20;94444.16;;;22.71;20.01
65359;BME280;52491;45.900;6.346;2023-01-30T01:12:48;94449.47;;;22.71;19.96
65359;BME280;52491;45.900;6.346;2023-01-30T01:15:14;94450.25;;;22.72;19.96
65359;BME280;52491;45.900;6.346;2023-01-30T01:17:41;94452.34;;;22.70;20.01
65359;BME280;52491;45.900;6.346;2023-01-30T01:20:08;94440.91;;;22.69;19.91
65359;BME280;52491;45.900;6.346;2023-01-30T01:22:34;94444.59;;;22.68;19.80
65359;BME280;52491;45.900;6.346;2023-01-30T01:25:00;94457.66;;;22.70;19.88
65359;BME280;52491;45.900;6.346;2023-01-30T01:27:25;94451.53;;;22.69;19.87
65359;BME280;52491;45.900;6.346;2023-01-30T01:29:51;94453.41;;;22.69;19.81
65359;BME280;52491;45.900;6.346;2023-01-30T01:32:17;94458.72;;;22.69;19.62
65359;BME280;52491;45.900;6.346;2023-01-30T01:34:44;94457.88;;;22.68;19.85
65359;BME280;52491;45.900;6.346;2023-01-30T01:37:09;94466.91;;;22.67;19.79
65359;BME280;52491;45.900;6.346;2023-01-30T01:39:36;94457.34;;;22.66;19.74
65359;BME280;52491;45.900;6.346;2023-01-30T01:42:21;94461.00;;;22.65;19.78
65359;BME280;52491;45.900;6.346;2023-01-30T01:45:03;94457.34;;;22.66;19.78
65359;BME280;52491;45.900;6.346;2023-01-30T01:47:44;94462.88;;;22.65;19.73
65359;BME280;52491;45.900;6.346;2023-01-30T01:50:15;94463.13;;;22.63;19.73
65359;BME280;52491;45.900;6.346;2023-01-30T01:52:43;94463.94;;;22.64;19.74
65359;BME280;52491;45.900;6.346;2023-01-30T01:55:10;94458.63;;;22.64;19.59
65359;BME280;52491;45.900;6.346;2023-01-30T01:57:41;94454.09;;;22.64;19.73
65359;BME280;52491;45.900;6.346;2023-01-30T02:00:14;94452.72;;;22.62;19.69
65359;BME280;52491;45.900;6.346;2023-01-30T02:02:51;94450.06;;;22.62;19.65
65359;BME280;52491;45.900;6.346;2023-01-30T02:05:20;94449.59;;;22.65;19.57
65359;BME280;52491;45.900;6.346;2023-01-30T02:07:54;94439.75;;;22.65;19.52
65359;BME280;52491;45.900;6.346;2023-01-30T02:13:11;94427.19;;;22.61;19.69
65359;BME280;52491;45.900;6.346;2023-01-30T02:15:36;94414.47;;;22.63;19.74
65359;BME280;52491;45.900;6.346;2023-01-30T02:18:02;94416.09;;;22.64;19.56
65359;BME280;52491;45.900;6.346;2023-01-30T02:31:41;94432.03;;;22.64;19.45
65359;BME280;52491;45.900;6.346;2023-01-30T02:37:30;94447.19;;;22.63;19.59
65359;BME280;52491;45.900;6.346;2023-01-30T02:46:08;94455.84;;;22.59;19.52
65359;BME280;52491;45.900;6.346;2023-01-30T02:49:05;94466.00;;;22.62;19.41
65359;BME280;52491;45.900;6.346;2023-01-30T02:51:36;94474.44;;;22.59;19.52
65359;BME280;52491;45.900;6.346;2023-01-30T02:54:07;94471.78;;;22.59;19.57
65359;BME280;52491;45.900;6.346;2023-01-30T02:56:52;94481.16;;;22.61;19.47
65359;BME280;52491;45.900;6.346;2023-01-30T02:59:23;94475.59;;;22.63;19.36
65359;BME280;52491;45.900;6.346;2023-01-30T03:04:37;94468.09;;;22.60;19.49
65359;BME280;52491;45.900;6.346;2023-01-30T03:07:32;94467.88;;;22.61;19.34
65359;BME280;52491;45.900;6.346;2023-01-30T03:13:01;94457.47;;;22.60;19.49
65359;BME280;52491;45.900;6.346;2023-01-30T03:15:34;94464.31;;;22.55;19.42
65359;BME280;52491;45.900;6.346;2023-01-30T03:18:02;94454.69;;;22.54;19.48
65359;BME280;52491;45.900;6.346;2023-01-30T03:20:28;94452.63;;;22.56;19.41
65359;BME280;52491;45.900;6.346;2023-01-30T03:22:55;94449.97;;;22.56;19.29
65359;BME280;52491;45.900;6.346;2023-01-30T03:25:23;94458.72;;;22.57;19.30
65359;BME280;52491;45.900;6.346;2023-01-30T03:27:52;94461.63;;;22.55;19.36
65359;BME280;52491;45.900;6.346;2023-01-30T03:30:19;94481.03;;;22.56;19.37
65359;BME280;52491;45.900;6.346;2023-01-30T03:32:45;94482.44;;;22.59;19.27
65359;BME280;52491;45.900;6.346;2023-01-30T03:35:10;94485.09;;;22.59;19.27
65359;BME280;52491;45.900;6.346;2023-01-30T03:37:36;94489.34;;;22.60;19.25
65359;BME280;52491;45.900;6.346;2023-01-30T03:40:03;94488.31;;;22.61;19.24
65359;BME280;52491;45.900;6.346;2023-01-30T03:42:29;94487.75;;;22.59;19.25
65359;BME280;52491;45.900;6.346;2023-01-30T03:44:55;94486.94;;;22.58;19.19
65359;BME280;52491;45.900;6.346;2023-01-30T03:47:20;94491.44;;;22.58;19.20
65359;BME280;52491;45.900;6.346;2023-01-30T03:49:46;94494.91;;;22.58;19.18
65359;BME280;52491;45.900;6.346;2023-01-30T03:52:12;94510.84;;;22.58;19.30
65359;BME280;52491;45.900;6.346;2023-01-30T03:54:37;94531.88;;;22.60;19.25
65359;BME280;52491;45.900;6.346;2023-01-30T03:57:03;94552.31;;;22.59;19.19
65359;BME280;52491;45.900;6.346;2023-01-30T03:59:29;94558.44;;;22.60;19.15
65359;BME280;52491;45.900;6.346;2023-01-30T04:01:54;94578.69;;;22.61;19.03
65359;BME280;52491;45.900;6.346;2023-01-30T04:04:20;94567.22;;;22.60;19.17
65359;BME280;52491;45.900;6.346;2023-01-30T04:06:45;94555.56;;;22.61;19.15
65359;BME280;52491;45.900;6.346;2023-01-30T04:09:11;94543.28;;;22.60;19.19
65359;BME280;52491;45.900;6.346;2023-01-30T04:11:37;94555.56;;;22.61;19.14
65359;BME280;52491;45.900;6.346;2023-01-30T04:14:03;94562.25;;;22.64;19.19
65359;BME280;52491;45.900;6.346;2023-01-30T04:16:28;94565.72;;;22.64;18.95
65359;BME280;52491;45.900;6.346;2023-01-30T04:18:54;94565.72;;;22.64;19.18
65359;BME280;52491;45.900;6.346;2023-01-30T04:21:20;94573.69;;;22.64;18.98
65359;BME280;52491;45.900;6.346;2023-01-30T04:23:46;94564.91;;;22.64;19.21
65359;BME280;52491;45.900;6.346;2023-01-30T04:26:11;94567.56;;;22.64;19.19
65359;BME280;52491;45.900;6.346;2023-01-30T04:28:38;94566.19;;;22.61;19.14
65359;BME280;52491;45.900;6.346;2023-01-30T04:31:05;94573.69;;;22.64;19.03
65359;BME280;52491;45.900;6.346;2023-01-30T04:33:31;94559.94;;;22.67;19.07
65359;BME280;52491;45.900;6.346;2023-01-30T04:36:00;94550.69;;;22.70;19.04
65359;BME280;52491;45.900;6.346;2023-01-30T04:38:27;94554.94;;;22.71;19.00
65359;BME280;52491;45.900;6.346;2023-01-30T04:40:54;94555.31;;;22.74;19.10
65359;BME280;52491;45.900;6.346;2023-01-30T04:43:21;94556.69;;;22.77;19.04
65359;BME280;52491;45.900;6.346;2023-01-30T04:45:48;94552.97;;;22.78;18.94
65359;BME280;52491;45.900;6.346;2023-01-30T04:48:15;94559.66;;;22.81;19.01
65359;BME280;52491;45.900;6.346;2023-01-30T04:50:43;94566.84;;;22.80;18.97
65359;BME280;52491;45.900;6.346;2023-01-30T04:53:10;94549.03;;;22.81;18.82
65359;BME280;52491;45.900;6.346;2023-01-30T04:55:36;94540.25;;;22.80;18.94
65359;BME280;52491;45.900;6.346;2023-01-30T04:58:02;94538.16;;;22.82;18.94
65359;BME280;52491;45.900;6.346;2023-01-30T05:00:28;94525.91;;;22.81;18.94
65359;BME280;52491;45.900;6.346;2023-01-30T05:02:53;94516.09;;;22.82;18.97
65359;BME280;52491;45.900;6.346;2023-01-30T05:05:24;94528.09;;;22.84;18.82
65359;BME280;52491;45.900;6.346;2023-01-30T05:07:50;94519.53;;;22.82;18.92
65359;BME280;52491;45.900;6.346;2023-01-30T05:10:16;94514.22;;;22.82;18.86
65359;BME280;52491;45.900;6.346;2023-01-30T05:12:41;94510.53;;;22.83;19.00
65359;BME280;52491;45.900;6.346;2023-01-30T05:15:08;94495.41;;;22.84;18.85
65359;BME280;52491;45.900;6.346;2023-01-30T05:17:34;94500.47;;;22.85;19.00
65359;BME280;52491;45.900;6.346;2023-01-30T05:20:00;94497.81;;;22.85;19.05
65359;BME280;52491;45.900;6.346;2023-01-30T05:22:26;94490.66;;;22.86;19.03
65359;BME280;52491;45.900;6.346;2023-01-30T05:24:52;94490.66;;;22.86;19.04
65359;BME280;52491;45.900;6.346;2023-01-30T05:27:18;94495.13;;;22.85;19.08
65359;BME280;52491;45.900;6.346;2023-01-30T05:29:44;94488.78;;;22.86;19.03
65359;BME280;52491;45.900;6.346;2023-01-30T05:32:14;94477.69;;;22.89;19.04
65359;BME280;52491;45.900;6.346;2023-01-30T05:34:40;94461.16;;;22.87;18.90
65359;BME280;52491;45.900;6.346;2023-01-30T05:37:06;94462.78;;;22.88;19.08
65359;BME280;52491;45.900;6.346;2023-01-30T05:39:32;94466.25;;;22.89;19.13
65359;BME280;52491;45.900;6.346;2023-01-30T05:41:57;94467.63;;;22.91;19.08
65359;BME280;52491;45.900;6.346;2023-01-30T05:44:23;94468.78;;;22.95;19.24
65359;BME280;52491;45.900;6.346;2023-01-30T05:46:49;94465.06;;;22.96;19.16
65359;BME280;52491;45.900;6.346;2023-01-30T05:49:15;94461.38;;;22.97;19.27
65359;BME280;52491;45.900;6.346;2023-01-30T05:51:40;94451.53;;;22.98;19.21
65359;BME280;52491;45.900;6.346;2023-01-30T05:54:06;94449.94;;;22.97;19.28
65359;BME280;52491;45.900;6.346;2023-01-30T05:56:32;94447.28;;;22.97;19.25
65359;BME280;52491;45.900;6.346;2023-01-30T05:59:00;94441.72;;;22.98;19.21
65359;BME280;52491;45.900;6.346;2023-01-30T06:01:27;94449.69;;;22.98;19.42
65359;BME280;52491;45.900;6.346;2023-01-30T06:03:56;94454.78;;;23.00;19.38
65359;BME280;52491;45.900;6.346;2023-01-30T06:06:23;94455.59;;;23.00;19.40
65359;BME280;52491;45.900;6.346;2023-01-30T06:08:54;94453.50;;;23.03;19.51
65359;BME280;52491;45.900;6.346;2023-01-30T06:13:45;94451.63;;;23.03;19.66
65359;BME280;52491;45.900;6.346;2023-01-30T06:16:12;94456.16;;;23.03;19.62
65359;BME280;52491;45.900;6.346;2023-01-30T06:18:38;94461.47;;;23.03;19.62
65359;BME280;52491;45.900;6.346;2023-01-30T06:21:04;94459.63;;;23.03;19.76
65359;BME280;52491;45.900;6.346;2023-01-30T06:25:56;94465.72;;;23.04;19.72
65359;BME280;52491;45.900;6.346;2023-01-30T06:28:23;94470.81;;;23.05;19.66
65359;BME280;52491;45.900;6.346;2023-01-30T06:30:50;94471.38;;;23.07;19.77
65359;BME280;52491;45.900;6.346;2023-01-30T06:33:17;94473.00;;;23.08;19.55
65359;BME280;52491;45.900;6.346;2023-01-30T06:35:43;94478.88;;;23.10;19.81
65359;BME280;52491;45.900;6.346;2023-01-30T06:38:10;94470.88;;;23.10;19.69
65359;BME280;52491;45.900;6.346;2023-01-30T06:40:39;94468.22;;;23.10;19.76
65359;BME280;52491;45.900;6.346;2023-01-30T06:43:04;94478.66;;;23.12;19.63
65359;BME280;52491;45.900;6.346;2023-01-30T06:45:30;94476.56;;;23.14;19.69
65359;BME280;52491;45.900;6.346;2023-01-30T06:47:56;94478.16;;;23.15;19.74
65359;BME280;52491;45.900;6.346;2023-01-30T06:50:25;94486.13;;;23.15;19.80
65359;BME280;52491;45.900;6.346;2023-01-30T06:52:52;94493.31;;;23.14;19.64
65359;BME280;52491;45.900;6.346;2023-01-30T06:55:20;94493.06;;;23.16;19.77
65359;BME280;52491;45.900;6.346;2023-01-30T06:57:46;94495.72;;;23.16;19.81
65359;BME280;52491;45.900;6.346;2023-01-30T07:00:17;94493.91;;;23.16;19.82
65359;BME280;52491;45.900;6.346;2023-01-30T07:02:43;94494.13;;;23.15;19.80
65359;BME280;52491;45.900;6.346;2023-01-30T07:05:10;94494.69;;;23.17;19.81
65359;BME280;52491;45.900;6.346;2023-01-30T07:07:37;94487.75;;;23.16;19.47
65359;BME280;52491;45.900;6.346;2023-01-30T07:10:03;94495.88;;;23.09;19.43
65359;BME280;52491;45.900;6.346;2023-01-30T07:12:29;94496.84;;;23.03;19.21
65359;BME280;52491;45.900;6.346;2023-01-30T07:14:55;94499.97;;;23.00;19.43
65359;BME280;52491;45.900;6.346;2023-01-30T07:17:21;94502.06;;;22.98;19.53
65359;BME280;52491;45.900;6.346;2023-01-30T07:19:47;94506.59;;;22.97;19.63
65359;BME280;52491;45.900;6.346;2023-01-30T07:22:13;94517.22;;;22.97;19.79
65359;BME280;52491;45.900;6.346;2023-01-30T07:24:39;94509.25;;;22.97;19.72
65359;BME280;52491;45.900;6.346;2023-01-30T07:27:08;94507.84;;;22.95;19.63
65359;BME280;52491;45.900;6.346;2023-01-30T07:29:34;94510.25;;;22.96;19.81
65359;BME280;52491;45.900;6.346;2023-01-30T07:32:00;94512.13;;;22.96;19.74
65359;BME280;52491;45.900;6.346;2023-01-30T07:34:25;94512.34;;;22.94;19.78
65359;BME280;52491;45.900;6.346;2023-01-30T07:36:51;94515.00;;;22.94;19.76
65359;BME280;52491;45.900;6.346;2023-01-30T07:39:17;94507.84;;;22.95;19.92
65359;BME280;52491;45.900;6.346;2023-01-30T07:41:42;94498.25;;;22.94;19.79
65359;BME280;52491;45.900;6.346;2023-01-30T07:44:08;94487.84;;;22.92;19.78
65359;BME280;52491;45.900;6.346;2023-01-30T07:46:33;94497.19;;;22.95;19.78
65359;BME280;52491;45.900;6.346;2023-01-30T07:49:00;94494.31;;;22.96;19.91
65359;BME280;52491;45.900;6.346;2023-01-30T07:51:26;94487.38;;;22.95;20.04
65359;BME280;52491;45.900;6.346;2023-01-30T07:53:52;94487.63;;;22.94;19.97
65359;BME280;52491;45.900;6.346;2023-01-30T07:56:17;94481.25;;;22.95;20.09
65359;BME280;52491;45.900;6.346;2023-01-30T07:58:45;94483.09;;;22.94;20.20
65359;BME280;52491;45.900;6.346;2023-01-30T08:01:10;94471.44;;;22.95;20.18
65359;BME280;52491;45.900;6.346;2023-01-30T08:03:36;94478.59;;;22.95;20.24
65359;BME280;52491;45.900;6.346;2023-01-30T08:06:02;94486.34;;;22.96;20.20
65359;BME280;52491;45.900;6.346;2023-01-30T08:08:28;94492.72;;;22.95;20.40
65359;BME280;52491;45.900;6.346;2023-01-30T08:10:53;94496.41;;;22.94;20.14
65359;BME280;52491;45.900;6.346;2023-01-30T08:13:19;94513.38;;;22.93;20.24
65359;BME280;52491;45.900;6.346;2023-01-30T08:15:44;94519.97;;;22.91;20.24
65359;BME280;52491;45.900;6.346;2023-01-30T08:18:10;94535.13;;;22.90;19.87
65359;BME280;52491;45.900;6.346;2023-01-30T08:20:35;94534.00;;;22.86;19.49
65359;BME280;52491;45.900;6.346;2023-01-30T08:23:01;94544.06;;;22.84;19.76
65359;BME280;52491;45.900;6.346;2023-01-30T08:25:28;94543.72;;;22.81;19.75
65359;BME280;52491;45.900;6.346;2023-01-30T08:27:53;94558.03;;;22.79;20.00
65359;BME280;52491;45.900;6.346;2023-01-30T08:30:19;94563.94;;;22.82;20.18
65359;BME280;52491;45.900;6.346;2023-01-30T08:32:45;94574.56;;;22.82;20.11
65359;BME280;52491;45.900;6.346;2023-01-30T08:35:12;94573.75;;;22.81;20.15
65359;BME280;52491;45.900;6.346;2023-01-30T08:37:40;94573.75;;;22.81;20.07
65359;BME280;52491;45.900;6.346;2023-01-30T08:40:08;94573.19;;;22.79;20.12
65359;BME280;52491;45.900;6.346;2023-01-30T08:42:34;94588.34;;;22.78;20.12
65359;BME280;52491;45.900;6.346;2023-01-30T08:45:00;94584.06;;;22.77;20.11
65359;BME280;52491;45.900;6.346;2023-01-30T08:47:25;94575.28;;;22.77;20.17
65359;BME280;52491;45.900;6.346;2023-01-30T08:49:51;94568.94;;;22.78;20.00
65359;BME280;52491;45.900;6.346;2023-01-30T08:52:18;94556.69;;;22.77;19.67
65359;BME280;52491;45.900;6.346;2023-01-30T08:54:44;94546.75;;;22.72;19.60
65359;BME280;52491;45.900;6.346;2023-01-30T08:57:09;94556.56;;;22.72;19.60
65359;BME280;52491;45.900;6.346;2023-01-30T08:59:35;94553.34;;;22.70;19.29
65359;BME280;52491;45.900;6.346;2023-01-30T09:02:01;94564.44;;;22.67;19.22
65359;BME280;52491;45.900;6.346;2023-01-30T09:04:30;94558.31;;;22.66;19.35
65359;BME280;52491;45.900;6.346;2023-01-30T09:06:56;94546.53;;;22.62;19.21
65359;BME280;52491;45.900;6.346;2023-01-30T09:09:22;94530.84;;;22.61;19.15
65359;BME280;52491;45.900;6.346;2023-01-30T09:14:14;94538.13;;;22.53;18.89
65359;BME280;52491;45.900;6.346;2023-01-30T09:16:45;94528.78;;;22.51;18.80
65359;BME280;52491;45.900;6.346;2023-01-30T09:19:10;94517.56;;;22.49;18.55
65359;BME280;52491;45.900;6.346;2023-01-30T09:21:36;94530.84;;;22.49;18.45
65359;BME280;52491;45.900;6.346;2023-01-30T09:24:03;94524.72;;;22.48;18.69
65359;BME280;52491;45.900;6.346;2023-01-30T09:26:29;94530.84;;;22.49;18.69
65359;BME280;52491;45.900;6.346;2023-01-30T09:28:55;94539.97;;;22.53;18.77
65359;BME280;52491;45.900;6.346;2023-01-30T09:31:20;94541.34;;;22.55;18.74
65359;BME280;52491;45.900;6.346;2023-01-30T09:33:46;94542.50;;;22.60;18.82
65359;BME280;52491;45.900;6.346;2023-01-30T09:36:12;94550.56;;;22.65;18.97
65359;BME280;52491;45.900;6.346;2023-01-30T09:38:37;94537.63;;;22.68;18.88
65359;BME280;52491;45.900;6.346;2023-01-30T09:44:01;94546.28;;;22.75;19.03
65359;BME280;52491;45.900;6.346;2023-01-30T09:46:45;94544.75;;;22.79;19.10
65359;BME280;52491;45.900;6.346;2023-01-30T09:49:22;94538.97;;;22.83;19.06
65359;BME280;52491;45.900;6.346;2023-01-30T09:54:39;94545.75;;;22.90;19.23
65359;BME280;52491;45.900;6.346;2023-01-30T09:57:25;94552.22;;;22.94;19.39
65359;BME280;52491;45.900;6.346;2023-01-30T09:59:56;94556.84;;;22.99;19.35
65359;BME280;52491;45.900;6.346;2023-01-30T10:02:40;94552.44;;;23.05;19.48
65359;BME280;52491;45.900;6.346;2023-01-30T10:05:09;94548.19;;;23.04;19.48
65359;BME280;52491;45.900;6.346;2023-01-30T10:10:10;94544.09;;;23.13;19.64
65359;BME280;52491;45.900;6.346;2023-01-30T10:15:42;94530.88;;;23.18;19.66
65359;BME280;52491;45.900;6.346;2023-01-30T10:27:10;94550.41;;;23.23;19.79
65359;BME280;52491;45.900;6.346;2023-01-30T10:29:39;94544.03;;;23.24;20.18
65359;BME280;52491;45.900;6.346;2023-01-30T10:32:28;94547.03;;;23.28;19.84
65359;BME280;52491;45.900;6.346;2023-01-30T10:34:59;94536.38;;;23.28;19.95
65359;BME280;52491;45.900;6.346;2023-01-30T10:37:32;94525.41;;;23.24;19.61
65359;BME280;52491;45.900;6.346;2023-01-30T10:40:21;94522.19;;;23.22;19.62
65359;BME280;52491;45.900;6.346;2023-01-30T10:57:02;94500.84;;;23.34;20.23
65359;BME280;52491;45.900;6.346;2023-01-30T11:04:57;94516.81;;;23.34;19.48
65359;BME280;52491;45.900;6.346;2023-01-30T11:07:28;94511.13;;;23.14;19.59
65359;BME280;52491;45.900;6.346;2023-01-30T11:09:56;94520.13;;;23.13;19.81
65359;BME280;52491;45.900;6.346;2023-01-30T11:12:22;94518.63;;;23.17;20.09
65359;BME280;52491;45.900;6.346;2023-01-30T11:17:18;94525.75;;;23.28;20.05
65359;BME280;52491;45.900;6.346;2023-01-30T11:19:44;94515.69;;;23.30;20.08
65359;BME280;52491;45.900;6.346;2023-01-30T11:22:18;94519.69;;;23.33;20.26
65359;BME280;52491;45.900;6.346;2023-01-30T11:24:44;94529.03;;;23.35;20.33
65359;BME280;52491;45.900;6.346;2023-01-30T11:27:23;94523.50;;;23.37;20.23
65359;BME280;52491;45.900;6.346;2023-01-30T11:30:02;94527.28;;;23.41;20.27
65359;BME280;52491;45.900;6.346;2023-01-30T11:32:28;94541.63;;;23.40;20.43
65359;BME280;52491;45.900;6.346;2023-01-30T11:35:19;94535.84;;;23.43;20.20
65359;BME280;52491;45.900;6.346;2023-01-30T11:37:47;94541.97;;;23.43;20.31
65359;BME280;52491;45.900;6.346;2023-01-30T11:40:24;94530.84;;;23.46;20.36
65359;BME280;52491;45.900;6.346;2023-01-30T11:42:54;94529.00;;;23.47;20.41
65359;BME280;52491;45.900;6.346;2023-01-30T11:45:23;94529.53;;;23.49;20.28
65359;BME280;52491;45.900;6.346;2023-01-30T11:47:57;94527.47;;;23.51;20.30
65359;BME280;52491;45.900;6.346;2023-01-30T11:50:30;94515.75;;;23.52;20.44
65359;BME280;52491;45.900;6.346;2023-01-30T11:53:01;94520.84;;;23.54;20.47
65359;BME280;52491;45.900;6.346;2023-01-30T11:55:27;94505.09;;;23.52;20.47
65359;BME280;52491;45.900;6.346;2023-01-30T11:57:55;94495.03;;;23.54;20.41
65359;BME280;52491;45.900;6.346;2023-01-30T12:00:37;94496.72;;;23.43;19.85
65359;BME280;52491;45.900;6.346;2023-01-30T12:03:09;94484.66;;;23.36;20.21
65359;BME280;52491;45.900;6.346;2023-01-30T12:05:37;94480.22;;;23.41;20.25
65359;BME280;52491;45.900;6.346;2023-01-30T12:10:48;94475.78;;;23.47;20.36
65359;BME280;52491;45.900;6.346;2023-01-30T12:13:19;94473.91;;;23.48;20.32
65359;BME280;52491;45.900;6.346;2023-01-30T12:15:49;94471.75;;;23.44;20.41
65359;BME280;52491;45.900;6.346;2023-01-30T12:23:47;94448.75;;;23.38;20.66
65359;BME280;52491;45.900;6.346;2023-01-30T12:26:25;94435.13;;;23.35;20.66
65359;BME280;52491;45.900;6.346;2023-01-30T12:29:26;94435.94;;;23.35;20.74
65359;BME280;52491;45.900;6.346;2023-01-30T12:32:13;94437.78;;;23.35;20.93
65359;BME280;52491;45.900;6.346;2023-01-30T12:34:40;94431.09;;;23.32;21.00
65359;BME280;52491;45.900;6.346;2023-01-30T12:47:41;94393.75;;;23.27;21.12
65359;BME280;52491;45.900;6.346;2023-01-30T13:04:22;94391.97;;;23.33;21.30
65359;BME280;52491;45.900;6.346;2023-01-30T13:12:39;94377.31;;;23.47;21.26
65359;BME280;52491;45.900;6.346;2023-01-30T13:15:36;94378.75;;;23.55;21.48
65359;BME280;52491;45.900;6.346;2023-01-30T13:18:17;94373.97;;;23.57;21.36
65359;BME280;52491;45.900;6.346;2023-01-30T13:21:00;94362.84;;;23.60;21.58
65359;BME280;52491;45.900;6.346;2023-01-30T13:23:43;94360.75;;;23.62;21.44
65359;BME280;52491;45.900;6.346;2023-01-30T13:26:18;94363.16;;;23.63;21.45
65359;BME280;52491;45.900;6.346;2023-01-30T13:28:52;94370.91;;;23.65;21.51
65359;BME280;52491;45.900;6.346;2023-01-30T13:31:22;94360.25;;;23.65;21.54
65359;BME280;52491;45.900;6.346;2023-01-30T13:34:03;94363.41;;;23.62;21.55
65359;BME280;52491;45.900;6.346;2023-01-30T13:36:41;94365.50;;;23.60;21.54
65359;BME280;52491;45.900;6.346;2023-01-30T13:39:22;94359.38;;;23.59;21.45
65359;BME280;52491;45.900;6.346;2023-01-30T13:41:54;94367.38;;;23.59;21.71
65359;BME280;52491;45.900;6.346;2023-01-30T13:44:25;94370.59;;;23.61;21.40
65359;BME280;52491;45.900;6.346;2023-01-30T13:46:53;94361.78;;;23.61;21.54
65359;BME280;52491;45.900;6.346;2023-01-30T13:49:27;94361.56;;;23.62;21.66
65359;BME280;52491;45.900;6.346;2023-01-30T13:52:06;94360.19;;;23.60;21.55
65359;BME280;52491;45.900;6.346;2023-01-30T13:54:45;94360.75;;;23.62;21.63
65359;BME280;52491;45.900;6.346;2023-01-30T13:57:44;94359.69;;;23.63;21.72
65359;BME280;52491;45.900;6.346;2023-01-30T14:08:21;94363.72;;;23.65;21.65
65359;BME280;52491;45.900;6.346;2023-01-30T14:10:48;94370.09;;;23.64;21.55
65359;BME280;52491;45.900;6.346;2023-01-30T14:13:15;94377.81;;;23.66;21.77
65359;BME280;52491;45.900;6.346;2023-01-30T14:15:54;94372.00;;;23.69;21.82
65359;BME280;52491;45.900;6.346;2023-01-30T14:18:25;94374.94;;;23.67;21.76
65359;BME280;52491;45.900;6.346;2023-01-30T14:21:18;94382.19;;;23.72;21.72
65359;BME280;52491;45.900;6.346;2023-01-30T14:24:01;94386.47;;;23.73;21.85
65359;BME280;52491;45.900;6.346;2023-01-30T14:34:45;94389.38;;;23.72;21.75
65359;BME280;52491;45.900;6.346;2023-01-30T14:40:03;94402.47;;;23.73;21.91
65359;BME280;52491;45.900;6.346;2023-01-30T14:45:57;94404.63;;;23.76;22.09
65359;BME280;52491;45.900;6.346;2023-01-30T14:48:37;94408.81;;;23.72;22.03
65359;BME280;52491;45.900;6.346;2023-01-30T14:54:17;94395.28;;;23.74;21.86
65359;BME280;52491;45.900;6.346;2023-01-30T14:56:55;94388.81;;;23.70;22.03
65359;BME280;52491;45.900;6.346;2023-01-30T15:02:02;94395.03;;;23.75;22.05
65359;BME280;52491;45.900;6.346;2023-01-30T15:07:27;94394.78;;;23.77;22.12
65359;BME280;52491;45.900;6.346;2023-01-30T15:18:25;94421.41;;;23.77;22.08
65359;BME280;52491;45.900;6.346;2023-01-30T15:29:51;94447.72;;;23.73;22.26
65359;BME280;52491;45.900;6.346;2023-01-30T15:32:22;94445.28;;;23.72;22.11
65359;BME280;52491;45.900;6.346;2023-01-30T15:35:09;94444.25;;;23.73;22.31
65359;BME280;52491;45.900;6.346;2023-01-30T15:45:56;94447.94;;;23.72;22.15
65359;BME280;52491;45.900;6.346;2023-01-30T15:51:24;94441.16;;;23.64;22.21
65359;BME280;52491;45.900;6.346;2023-01-30T15:53:53;94446.16;;;23.60;22.15
65359;BME280;52491;45.900;6.346;2023-01-30T15:56:23;94448.81;;;23.60;22.47
65359;BME280;52491;45.900;6.346;2023-01-30T15:58:50;94463.41;;;23.58;22.70
65359;BME280;52491;45.900;6.346;2023-01-30T16:01:19;94445.03;;;23.56;22.65
65359;BME280;52491;45.900;6.346;2023-01-30T16:03:45;94450.28;;;23.51;22.64
65359;BME280;52491;45.900;6.346;2023-01-30T16:06:32;94459.56;;;23.49;22.67
65359;BME280;52491;45.900;6.346;2023-01-30T16:09:13;94456.31;;;23.46;22.61